createdAt,value
2019-02-24T00:01:24.949Z,103519.39
2019-02-24T00:03:58.181Z,103523.23
2019-02-24T00:06:31.427Z,103520.59
2019-02-24T00:09:04.925Z,103521.37
2019-02-24T00:11:38.949Z,103515.72
2019-02-24T00:14:12.181Z,103517.16
2019-02-24T00:16:45.441Z,103516.55
2019-02-24T00:19:18.676Z,103519.55
2019-02-24T00:21:51.935Z,103519.55
2019-02-24T00:24:25.164Z,103516.61
2019-02-24T00:26:58.418Z,103510.78
2019-02-24T00:29:31.654Z,103510.78
2019-02-24T00:32:04.909Z,103508.00
2019-02-24T00:34:38.143Z,103510.17
2019-02-24T00:37:11.401Z,103508.20
2019-02-24T00:39:44.648Z,103509.09
2019-02-24T00:42:18.075Z,103513.95
2019-02-24T00:44:51.309Z,103507.00
2019-02-24T00:47:24.715Z,103513.34
2019-02-24T00:49:57.944Z,103509.34
2019-02-24T00:52:31.191Z,103506.33
2019-02-24T00:55:06.069Z,103506.60
2019-02-24T00:57:39.325Z,103501.30
2019-02-24T01:00:12.548Z,103511.16
2019-02-24T01:02:47.068Z,103505.41
2019-02-24T01:05:20.296Z,103509.77
2019-02-24T01:07:53.557Z,103508.97
2019-02-24T01:10:27.461Z,103506.23
2019-02-24T01:13:00.702Z,103510.95
2019-02-24T01:15:33.939Z,103510.48
2019-02-24T01:18:07.457Z,103515.19
2019-02-24T01:20:41.665Z,103517.31
2019-02-24T01:23:14.914Z,103511.09
2019-02-24T01:25:48.143Z,103511.98
2019-02-24T01:28:25.341Z,103514.05
2019-02-24T01:30:56.326Z,103521.94
2019-02-24T01:33:29.560Z,103516.11
2019-02-24T01:36:02.801Z,103511.66
2019-02-24T01:38:36.055Z,103516.78
2019-02-24T01:41:09.293Z,103523.73
2019-02-24T01:43:42.542Z,103519.27
2019-02-24T01:46:15.780Z,103517.50
2019-02-24T01:48:49.035Z,103517.97
2019-02-24T01:51:22.264Z,103512.63
2019-02-24T01:53:55.520Z,103521.30
2019-02-24T01:56:28.753Z,103509.58
2019-02-24T01:59:02.000Z,103512.17
2019-02-24T02:01:35.230Z,103506.81
2019-02-24T02:04:08.489Z,103512.98
2019-02-24T02:06:41.723Z,103510.41
2019-02-24T02:09:14.967Z,103505.63
2019-02-24T02:11:48.192Z,103498.95
2019-02-24T02:14:21.445Z,103496.83
2019-02-24T02:16:54.679Z,103501.42
2019-02-24T02:19:27.935Z,103504.65
2019-02-24T02:22:01.168Z,103498.41
2019-02-24T02:24:34.419Z,103498.94
2019-02-24T02:27:07.649Z,103489.34
2019-02-24T02:29:40.903Z,103488.52
2019-02-24T02:32:14.131Z,103487.08
2019-02-24T02:34:47.379Z,103482.25
2019-02-24T02:37:20.614Z,103474.48
2019-02-24T02:39:53.859Z,103478.19
2019-02-24T02:42:27.091Z,103472.59
2019-02-24T02:45:00.590Z,103472.12
2019-02-24T02:47:33.826Z,103482.95
2019-02-24T02:50:07.079Z,103479.07
2019-02-24T02:52:40.305Z,103479.54
2019-02-24T02:55:13.548Z,103474.20
2019-02-24T02:57:47.094Z,103468.50
2019-02-24T03:00:28.443Z,103468.29
2019-02-24T03:03:01.670Z,103470.70
2019-02-24T03:05:34.925Z,103465.17
2019-02-24T03:08:08.146Z,103412.63
2019-02-24T03:10:41.400Z,103463.94
2019-02-24T03:13:14.626Z,103469.58
2019-02-24T03:15:47.855Z,103474.38
2019-02-24T03:18:21.090Z,103474.86
2019-02-24T03:20:54.346Z,103489.57
2019-02-24T03:23:27.580Z,103493.52
2019-02-24T03:26:00.845Z,103500.81
2019-02-24T03:28:34.092Z,103502.46
2019-02-24T03:31:07.341Z,103500.66
2019-02-24T03:33:40.565Z,103505.45
2019-02-24T03:36:13.809Z,103508.11
2019-02-24T03:38:47.037Z,103507.64
2019-02-24T03:41:20.300Z,103502.05
2019-02-24T03:43:53.535Z,103508.85
2019-02-24T03:46:26.786Z,103507.67
2019-02-24T03:49:00.025Z,103508.15
2019-02-24T03:51:33.271Z,103502.44
2019-02-24T03:54:06.503Z,103511.34
2019-02-24T03:56:39.756Z,103509.67
2019-02-24T03:59:15.325Z,103505.70
2019-02-24T04:01:47.941Z,103504.97
2019-02-24T04:04:21.176Z,103506.38
2019-02-24T04:06:54.423Z,103514.21
2019-02-24T04:09:27.661Z,103515.03
2019-02-24T04:12:00.905Z,103520.63
2019-02-24T04:14:34.138Z,103525.45
2019-02-24T04:17:07.372Z,103525.45
2019-02-24T04:19:40.609Z,103528.05
2019-02-24T04:22:13.859Z,103531.87
2019-02-24T04:24:47.093Z,103529.28
2019-02-24T04:27:20.347Z,103529.44
2019-02-24T04:29:53.584Z,103533.50
2019-02-24T04:32:26.831Z,103530.23
2019-02-24T04:35:00.284Z,103534.75
2019-02-24T04:37:33.584Z,103531.69
2019-02-24T04:40:07.293Z,103538.16
2019-02-24T04:42:40.540Z,103538.01
2019-02-24T04:45:13.770Z,103541.11
2019-02-24T04:47:47.019Z,103530.73
2019-02-24T04:50:20.332Z,103530.97
2019-02-24T04:52:53.508Z,103532.83
2019-02-24T04:55:26.744Z,103536.09
2019-02-24T04:57:59.989Z,103534.55
2019-02-24T05:00:33.219Z,103533.77
2019-02-24T05:03:06.476Z,103532.22
2019-02-24T05:05:39.708Z,103539.17
2019-02-24T05:08:12.963Z,103532.63
2019-02-24T05:10:46.202Z,103533.05
2019-02-24T05:13:19.461Z,103538.48
2019-02-24T05:15:52.692Z,103538.08
2019-02-24T05:18:25.950Z,103543.26
2019-02-24T05:20:59.180Z,103548.03
2019-02-24T05:23:32.431Z,103545.37
2019-02-24T05:26:05.659Z,103536.02
2019-02-24T05:28:38.910Z,103544.47
2019-02-24T05:31:12.141Z,103548.51
2019-02-24T05:33:45.392Z,103549.56
2019-02-24T05:36:18.618Z,103537.81
2019-02-24T05:38:51.873Z,103530.91
2019-02-24T05:41:25.101Z,103533.45
2019-02-24T05:43:58.367Z,103539.53
2019-02-24T05:46:31.596Z,103543.35
2019-02-24T05:49:04.837Z,103543.24
2019-02-24T05:51:38.065Z,103543.45
2019-02-24T05:54:11.317Z,103544.98
2019-02-24T05:56:44.548Z,103542.96
2019-02-24T05:59:17.797Z,103548.81
2019-02-24T06:01:51.027Z,103543.77
2019-02-24T06:04:24.264Z,103545.53
2019-02-24T06:06:57.503Z,103548.22
2019-02-24T06:09:31.827Z,103540.39
2019-02-24T06:12:05.060Z,103545.58
2019-02-24T06:14:38.305Z,103543.17
2019-02-24T06:17:11.534Z,103546.29
2019-02-24T06:19:44.781Z,103550.70
2019-02-24T06:22:18.026Z,103543.17
2019-02-24T06:24:51.272Z,103550.70
2019-02-24T06:27:24.505Z,103552.05
2019-02-24T06:30:04.601Z,103556.50
2019-02-24T06:32:32.690Z,103566.63
2019-02-24T06:35:07.175Z,103576.78
2019-02-24T06:37:40.411Z,103583.73
2019-02-24T06:40:13.648Z,103581.74
2019-02-24T06:42:46.882Z,103587.51
2019-02-24T06:45:20.127Z,103596.73
2019-02-24T06:47:53.356Z,103594.60
2019-02-24T06:50:35.143Z,103602.95
2019-02-24T06:53:01.562Z,103604.39
2019-02-24T06:55:34.830Z,103612.29
2019-02-24T06:58:08.061Z,103619.72
2019-02-24T07:00:41.307Z,103622.73
2019-02-24T07:03:14.542Z,103614.52
2019-02-24T07:05:47.793Z,103615.77
2019-02-24T07:08:21.026Z,103611.17
2019-02-24T07:10:54.293Z,103608.40
2019-02-24T07:13:27.523Z,103605.91
2019-02-24T07:16:00.767Z,103612.58
2019-02-24T07:18:33.996Z,103613.23
2019-02-24T07:21:07.249Z,103619.02
2019-02-24T07:23:40.485Z,103616.98
2019-02-24T07:26:13.734Z,103624.13
2019-02-24T07:28:46.963Z,103581.69
2019-02-24T07:31:20.201Z,103624.18
2019-02-24T07:33:53.427Z,103623.84
2019-02-24T07:36:26.668Z,103630.07
2019-02-24T07:38:59.905Z,103636.57
2019-02-24T07:41:33.159Z,103629.92
2019-02-24T07:44:06.388Z,103626.08
2019-02-24T07:46:39.635Z,103630.39
2019-02-24T07:49:12.871Z,103632.44
2019-02-24T07:51:46.120Z,103632.71
2019-02-24T07:54:19.365Z,103626.31
2019-02-24T07:56:52.618Z,103631.38
2019-02-24T07:59:25.850Z,103625.61
2019-02-24T08:01:59.098Z,103617.22
2019-02-24T08:04:32.606Z,103615.17
2019-02-24T08:07:05.850Z,103621.06
2019-02-24T08:09:39.089Z,103623.30
2019-02-24T08:12:12.328Z,103612.48
2019-02-24T08:14:45.556Z,103616.38
2019-02-24T08:17:18.800Z,103622.31
2019-02-24T08:19:52.026Z,103628.34
2019-02-24T08:22:25.271Z,103625.84
2019-02-24T08:24:58.533Z,103626.73
2019-02-24T08:27:31.782Z,103632.30
2019-02-24T08:30:08.414Z,103633.55
2019-02-24T08:32:41.654Z,103629.65
2019-02-24T08:35:14.886Z,103631.83
2019-02-24T08:37:48.125Z,103627.52
2019-02-24T08:40:21.358Z,103613.05
2019-02-24T08:42:54.615Z,103612.16
2019-02-24T08:45:27.844Z,103617.88
2019-02-24T08:48:01.089Z,103627.33
2019-02-24T08:50:34.311Z,103633.31
2019-02-24T08:53:07.563Z,103637.58
2019-02-24T08:55:40.791Z,103640.05
2019-02-24T08:58:14.031Z,103640.55
2019-02-24T09:00:51.113Z,103644.22
2019-02-24T09:03:22.207Z,103643.53
2019-02-24T09:05:55.446Z,103638.09
2019-02-24T09:08:28.695Z,103642.23
2019-02-24T09:11:01.921Z,103641.62
2019-02-24T09:13:35.174Z,103643.20
2019-02-24T09:16:08.410Z,103646.27
2019-02-24T09:18:41.672Z,103636.71
2019-02-24T09:21:14.891Z,103640.61
2019-02-24T09:23:48.128Z,103628.40
2019-02-24T09:26:21.356Z,103636.66
2019-02-24T09:28:54.601Z,103635.36
2019-02-24T09:31:27.838Z,103637.03
2019-02-24T09:34:01.095Z,103638.38
2019-02-24T09:36:34.324Z,103636.98
2019-02-24T09:39:07.566Z,103637.45
2019-02-24T09:41:40.793Z,103634.25
2019-02-24T09:44:14.031Z,103634.30
2019-02-24T09:46:47.256Z,103637.27
2019-02-24T09:49:20.514Z,103641.67
2019-02-24T09:51:53.736Z,103645.47
2019-02-24T09:54:26.982Z,103648.30
2019-02-24T09:57:00.215Z,103650.07
2019-02-24T09:59:33.461Z,103651.37
2019-02-24T10:02:06.690Z,103644.09
2019-02-24T10:04:39.935Z,103640.23
2019-02-24T10:07:13.163Z,103640.79
2019-02-24T10:09:46.397Z,103641.80
2019-02-24T10:12:19.633Z,103633.44
2019-02-24T10:14:52.881Z,103631.06
2019-02-24T10:17:26.107Z,103632.52
2019-02-24T10:19:59.348Z,103638.23
2019-02-24T10:22:33.643Z,103654.00
2019-02-24T10:25:07.641Z,103654.09
2019-02-24T10:27:40.883Z,103647.84
2019-02-24T10:30:17.080Z,103646.13
2019-02-24T10:32:50.327Z,103652.53
2019-02-24T10:35:23.629Z,103655.27
2019-02-24T10:37:56.830Z,103656.47
2019-02-24T10:40:30.084Z,103657.27
2019-02-24T10:43:03.320Z,103662.78
2019-02-24T10:45:36.583Z,103669.28
2019-02-24T10:48:14.033Z,103672.70
2019-02-24T10:50:44.750Z,103668.39
2019-02-24T10:53:17.984Z,103676.19
2019-02-24T10:55:51.266Z,103677.48
2019-02-24T10:58:24.508Z,103683.10
2019-02-24T11:00:57.760Z,103684.87
2019-02-24T11:03:31.005Z,103688.03
2019-02-24T11:06:04.324Z,103678.00
2019-02-24T11:08:37.593Z,103680.32
2019-02-24T11:11:10.828Z,103674.76
2019-02-24T11:13:44.065Z,103669.09
2019-02-24T11:16:17.328Z,103672.99
2019-02-24T11:18:50.555Z,103676.52
2019-02-24T11:21:23.802Z,103682.09
2019-02-24T11:23:57.026Z,103672.58
2019-02-24T11:26:30.283Z,103672.99
2019-02-24T11:29:03.513Z,103669.09
2019-02-24T11:31:38.604Z,103670.81
2019-02-24T11:34:11.868Z,103668.21
2019-02-24T11:36:46.086Z,103672.94
2019-02-24T11:39:19.313Z,103679.02
2019-02-24T11:41:52.556Z,103673.36
2019-02-24T11:44:25.785Z,103668.62
2019-02-24T11:46:59.032Z,103670.81
2019-02-24T11:49:32.277Z,103674.23
2019-02-24T11:52:05.524Z,103681.63
2019-02-24T11:54:39.736Z,103672.52
2019-02-24T11:57:12.973Z,103673.87
2019-02-24T11:59:46.234Z,103675.95
2019-02-24T12:02:19.495Z,103688.45
2019-02-24T12:04:52.727Z,103681.16
2019-02-24T12:07:25.984Z,103690.72
2019-02-24T12:09:59.219Z,103690.63
2019-02-24T12:12:32.467Z,103693.55
2019-02-24T12:15:13.273Z,103695.67
2019-02-24T12:17:46.531Z,103683.56
2019-02-24T12:20:19.756Z,103685.80
2019-02-24T12:22:53.005Z,103685.94
2019-02-24T12:25:26.231Z,103683.39
2019-02-24T12:27:59.481Z,103680.55
2019-02-24T12:30:32.717Z,103679.02
2019-02-24T12:33:05.972Z,103687.69
2019-02-24T12:35:39.205Z,103685.84
2019-02-24T12:38:12.459Z,103684.55
2019-02-24T12:40:45.687Z,103686.86
2019-02-24T12:43:18.942Z,103684.77
2019-02-24T12:45:52.176Z,103684.63
2019-02-24T12:48:25.408Z,103684.08
2019-02-24T12:50:58.931Z,103680.13
2019-02-24T12:53:32.187Z,103680.13
2019-02-24T12:56:05.426Z,103671.78
2019-02-24T12:58:38.663Z,103671.36
2019-02-24T13:01:11.892Z,103672.98
2019-02-24T13:03:45.128Z,103669.44
2019-02-24T13:06:18.367Z,103665.05
2019-02-24T13:08:51.605Z,103655.48
2019-02-24T13:11:24.838Z,103656.78
2019-02-24T13:13:58.102Z,103654.27
2019-02-24T13:16:31.343Z,103650.76
2019-02-24T13:19:04.601Z,103643.75
2019-02-24T13:21:37.831Z,103650.66
2019-02-24T13:24:11.079Z,103648.11
2019-02-24T13:26:44.308Z,103644.06
2019-02-24T13:29:17.546Z,103645.69
2019-02-24T13:31:50.786Z,103648.84
2019-02-24T13:34:24.024Z,103646.66
2019-02-24T13:36:58.714Z,103640.49
2019-02-24T13:39:32.233Z,103637.42
2019-02-24T13:42:05.461Z,103638.78
2019-02-24T13:44:38.705Z,103636.13
2019-02-24T13:47:11.944Z,103633.20
2019-02-24T13:49:45.188Z,103630.99
2019-02-24T13:52:18.425Z,103635.72
2019-02-24T13:54:51.699Z,103637.39
2019-02-24T13:57:24.936Z,103636.37
2019-02-24T13:59:58.185Z,103632.06
2019-02-24T14:02:31.412Z,103628.11
2019-02-24T14:05:04.659Z,103625.93
2019-02-24T14:07:37.884Z,103622.86
2019-02-24T14:10:12.226Z,103621.02
2019-02-24T14:12:45.466Z,103623.14
2019-02-24T19:37:40.916Z,103624.73
2019-02-24T19:40:16.362Z,103622.33
2019-02-24T19:42:50.568Z,103626.77
2019-02-24T19:45:25.150Z,103625.06
2019-02-24T19:47:58.388Z,103627.25
2019-02-24T19:50:31.630Z,103626.58
2019-02-24T19:53:04.857Z,103629.33
2019-02-24T19:55:38.103Z,103626.77
2019-02-24T19:58:11.335Z,103636.75
2019-02-24T20:00:44.569Z,103633.59
2019-02-24T20:03:17.796Z,103637.26
2019-02-24T20:05:51.039Z,103635.88
2019-02-24T20:08:24.272Z,103641.34
2019-02-24T20:10:57.531Z,103647.23
2019-02-24T20:13:30.766Z,103646.86
2019-02-24T20:16:06.651Z,103646.77
2019-02-24T20:18:39.889Z,103647.95
2019-02-24T20:21:13.142Z,103654.20
2019-02-24T20:23:46.386Z,103643.11
2019-02-24T20:26:21.277Z,103637.55
2019-02-24T20:28:54.524Z,103637.55
2019-02-24T20:31:27.764Z,103647.83
2019-02-24T20:34:01.026Z,103653.27
2019-02-24T20:36:34.268Z,103651.78
2019-02-24T20:39:09.139Z,103654.33
2019-02-24T20:41:45.330Z,103655.16
2019-02-24T20:44:18.566Z,103649.58
2019-02-24T20:46:51.829Z,103664.53
2019-02-24T20:49:25.075Z,103656.33
2019-02-24T20:51:58.315Z,103667.39
2019-02-24T20:54:31.565Z,103666.70
2019-02-24T20:57:05.792Z,103674.77
2019-02-24T20:59:39.117Z,103668.01
2019-02-24T21:02:12.378Z,103676.38
2019-02-24T21:04:45.850Z,103674.93
2019-02-24T21:07:19.089Z,103675.65
2019-02-24T21:09:52.332Z,103672.94
2019-02-24T21:12:25.585Z,103680.53
2019-02-24T21:14:58.816Z,103677.86
2019-02-24T21:17:32.061Z,103689.84
2019-02-24T21:20:08.794Z,103688.80
2019-02-24T21:22:42.037Z,103686.67
2019-02-24T21:25:15.275Z,103688.48
2019-02-24T21:27:48.599Z,103691.25
2019-02-24T21:30:21.844Z,103702.48
2019-02-24T21:32:55.141Z,103703.83
2019-02-24T21:35:28.382Z,103708.60
2019-02-24T21:38:01.640Z,103702.36
2019-02-24T21:40:35.849Z,103705.42
2019-02-24T21:43:09.093Z,103701.67
2019-02-24T21:45:42.595Z,103707.55
2019-02-24T21:48:15.850Z,103710.98
2019-02-24T21:50:49.079Z,103712.59
2019-02-24T21:53:22.562Z,103710.82
2019-02-24T21:55:56.036Z,103714.05
2019-02-24T21:58:29.277Z,103712.50
2019-02-24T22:01:02.519Z,103712.30
2019-02-24T22:03:35.838Z,103714.73
2019-02-24T22:06:09.069Z,103710.78
2019-02-24T22:08:42.318Z,103716.39
2019-02-24T22:11:15.550Z,103707.16
2019-02-24T22:13:48.792Z,103708.52
2019-02-24T22:16:22.025Z,103714.84
2019-02-24T22:18:55.264Z,103709.59
2019-02-24T22:21:28.498Z,103711.83
2019-02-24T22:24:01.762Z,103706.58
2019-02-24T22:26:34.993Z,103710.22
2019-02-24T22:29:08.241Z,103705.97
2019-02-24T22:31:41.473Z,103705.50
2019-02-24T22:34:14.721Z,103708.72
2019-02-24T22:36:47.959Z,103710.48
2019-02-24T22:39:21.227Z,103705.59
2019-02-24T22:41:54.529Z,103701.96
2019-02-24T22:44:27.871Z,103700.98
2019-02-24T22:47:01.451Z,103702.17
2019-02-24T22:49:34.704Z,103704.00
2019-02-24T22:52:07.944Z,103705.66
2019-02-24T22:54:41.213Z,103697.66
2019-02-24T22:57:14.452Z,103702.06
2019-02-24T22:59:47.697Z,103702.74
2019-02-24T23:02:21.707Z,103704.87
2019-02-24T23:04:54.958Z,103696.41
2019-02-24T23:07:28.185Z,103706.84
2019-02-24T23:10:01.445Z,103711.14
2019-02-24T23:12:35.849Z,103712.54
2019-02-24T23:15:09.436Z,103706.78
2019-02-24T23:17:42.671Z,103705.02
2019-02-24T23:20:17.099Z,103698.53
2019-02-24T23:22:50.649Z,103697.64
2019-02-24T23:25:23.889Z,103702.01
2019-02-24T23:27:57.121Z,103695.64
2019-02-24T23:30:30.366Z,103699.94
2019-02-24T23:33:03.591Z,103697.34
2019-02-24T23:35:36.839Z,103695.58
2019-02-24T23:38:10.083Z,103701.59
2019-02-24T23:40:43.337Z,103699.83
2019-02-24T23:43:16.571Z,103700.66
2019-02-24T23:45:49.820Z,103704.55
2019-02-24T23:48:23.049Z,103703.57
2019-02-24T23:50:56.305Z,103700.03
2019-02-24T23:53:29.542Z,103702.16
2019-02-24T23:56:02.783Z,103706.16
2019-02-24T23:58:36.015Z,103707.70
